• Join FlightAware (Why Join?)
  • Login
  • US Flag 
06:22PM EDT


 

Airport Tracker/Info


-or-


 

Live Flight TrackerFlight Track Log ✈ AWE534 ✈ 30-Jan-2014 ✈ KPHX - MMSD / SJD

Flight Track Log - Related Links

Times and Time Zones

All times are in EST time to prevent confusion due to time zone crossing. See the AWE534 flight status page for this flight to view local times or setup timezone preferences in your user account.

Time Position Orientation Groundspeed Altitude Reporting Facility
EST Latitude Longitude Course Direction KTS MPH feet Rate Location/Type
01:32PM 33.4333 -111.9833 133° Southeast 157 181 2,100  Level Phoenix TRACON
01:32PM 33.4333 -111.9833 133° Southeast 157 181 2,300 1,680 Climbing Phoenix TRACON
01:33PM 33.4333 -111.9167 90° East 207 238 4,000 1,980 Climbing Phoenix TRACON
01:34PM 33.0891 -111.9389 168° South  Level FlightAware Approximate
01:34PM 33.4392 -111.8600 83° East 232 267 6,000  Level Albuquerque Center
01:35PM 32.9762 -111.9167 180° South  Level FlightAware Approximate
01:35PM 33.4128 -111.7775 111° Southeast 265 305 8,600  Level Albuquerque Center
01:36PM 32.8684 -111.8812 133° Southeast  Level FlightAware Approximate
01:36PM 33.3456 -111.7258 147° Southeast 295 339 11,400  Level Albuquerque Center
01:37PM 32.7884 -111.7810 133° Southeast  Level FlightAware Approximate
01:37PM 33.2772 -111.7703 209° Southwest 285 328 13,400  Level Albuquerque Center
01:38PM 33.1825 -111.8436 213° Southwest 326 375 17,100 2,820 Climbing Albuquerque Center
01:39PM 33.0928 -111.8608 189° South 344 396 19,300 2,100 Climbing Albuquerque Center
01:40PM 32.9983 -111.8822 191° South 346 398 21,500 1,800 Climbing Albuquerque Center
01:41PM 32.8972 -111.8939 186° South 367 422 23,100 1,620 Climbing Albuquerque Center
01:42PM 32.8061 -111.8053 141° Southeast 431 496 24,900 1,620 Climbing Albuquerque Center
01:43PM 32.7219 -111.6989 133° Southeast 442 509 26,500 1,620 Climbing Albuquerque Center
01:44PM 32.6172 -111.5678 133° Southeast 456 525 28,300 1,440 Climbing Albuquerque Center
01:45PM 32.5278 -111.4556 133° Southeast 464 534 29,500 1,020 Climbing Albuquerque Center
01:46PM 32.4372 -111.3406 133° Southeast 473 544 30,500 960 Climbing Albuquerque Center
01:47PM 32.3425 -111.2239 134° Southeast 487 560 31,600 1,020 Climbing Albuquerque Center
01:48PM 32.2467 -111.1033 133° Southeast 499 574 32,700 1,500 Climbing Albuquerque Center
01:49PM 32.1256 -110.9728 138° Southeast 497 572 34,700 1,620 Climbing Albuquerque Center
01:50PM 32.0056 -110.9217 160° South 467 537 36,100 1,080 Climbing Albuquerque Center
01:51PM 31.8850 -110.9264 182° South 434 499 37,000 420 Climbing Albuquerque Center
01:52PM 31.7644 -110.9322 182° South 432 497 37,000  Level Albuquerque Center
01:53PM 31.6447 -110.9350 181° South 431 496 37,000  Level Albuquerque Center
01:54PM 31.5222 -110.9394 182° South 436 502 37,000  Level Albuquerque Center
01:55PM 31.3769 -110.9461 182° South 436 502 37,000  Level Albuquerque Center
01:57PM 31.2523 -110.9396 184° South  Level FlightAware Approximate
02:04PM 30.4821 -110.9764 182° South  Level FlightAware Approximate
02:05PM 30.3720 -110.9809 182° South  Level FlightAware Approximate
02:06PM 30.2619 -110.9855 182° South  Level FlightAware Approximate
02:07PM 30.1519 -110.9900 182° South  Level FlightAware Approximate
02:08PM 30.0418 -110.9945 182° South  Level FlightAware Approximate
02:09PM 29.9318 -110.9990 182° South  Level FlightAware Approximate
02:10PM 29.8217 -111.0035 182° South  Level FlightAware Approximate
02:11PM 29.7117 -111.0079 182° South  Level FlightAware Approximate
02:12PM 29.6016 -111.0124 182° South  Level FlightAware Approximate
02:13PM 29.4915 -111.0169 182° South  Level FlightAware Approximate
02:14PM 29.3815 -111.0213 182° South  Level FlightAware Approximate
02:15PM 29.2714 -111.0258 182° South  Level FlightAware Approximate
02:16PM 29.1614 -111.0302 182° South  Level FlightAware Approximate
02:17PM 29.0515 -111.0290 173° South  Level FlightAware Approximate
02:18PM 28.9422 -111.0139 173° South  Level FlightAware Approximate
02:19PM 28.8328 -110.9990 173° South  Level FlightAware Approximate
02:20PM 28.7235 -110.9840 173° South  Level FlightAware Approximate
02:21PM 28.6141 -110.9691 173° South  Level FlightAware Approximate
02:22PM 28.5048 -110.9542 173° South  Level FlightAware Approximate
02:23PM 28.3954 -110.9394 173° South  Level FlightAware Approximate
02:24PM 28.2861 -110.9246 173° South  Level FlightAware Approximate
02:25PM 28.1767 -110.9098 173° South  Level FlightAware Approximate
02:26PM 28.0674 -110.8950 173° South  Level FlightAware Approximate
02:27PM 27.9580 -110.8803 173° South  Level FlightAware Approximate
02:28PM 27.8486 -110.8656 173° South  Level FlightAware Approximate
02:29PM 27.7393 -110.8509 173° South  Level FlightAware Approximate
02:30PM 27.6299 -110.8363 173° South  Level FlightAware Approximate
02:31PM 27.5205 -110.8216 173° South  Level FlightAware Approximate
02:32PM 27.4112 -110.8068 173° South  Level FlightAware Approximate
02:33PM 27.3019 -110.7920 173° South  Level FlightAware Approximate
02:34PM 27.1925 -110.7771 173° South  Level FlightAware Approximate
02:35PM 27.0832 -110.7623 173° South  Level FlightAware Approximate
02:36PM 26.9739 -110.7475 173° South  Level FlightAware Approximate
02:37PM 26.8645 -110.7327 173° South  Level FlightAware Approximate
02:38PM 26.7552 -110.7180 173° South  Level FlightAware Approximate
02:39PM 26.6458 -110.7033 173° South  Level FlightAware Approximate
02:40PM 26.5365 -110.6886 173° South  Level FlightAware Approximate
02:41PM 26.4272 -110.6740 173° South  Level FlightAware Approximate
02:42PM 26.3178 -110.6594 173° South  Level FlightAware Approximate
02:43PM 26.2085 -110.6448 173° South  Level FlightAware Approximate
02:44PM 26.0991 -110.6302 173° South  Level FlightAware Approximate
02:45PM 25.9897 -110.6157 173° South  Level FlightAware Approximate
02:46PM 25.8804 -110.6012 173° South  Level FlightAware Approximate
02:47PM 25.7710 -110.5867 173° South  Level FlightAware Approximate
02:48PM 25.6617 -110.5722 173° South  Level FlightAware Approximate
02:49PM 25.5523 -110.5578 173° South  Level FlightAware Approximate
02:50PM 25.4430 -110.5434 173° South  Level FlightAware Approximate
02:51PM 25.3420 -110.5086 138° Southeast  Level FlightAware Approximate
02:52PM 25.2603 -110.4269 138° Southeast  Level FlightAware Approximate
02:53PM 25.1867 -110.3367 138° Southeast  Level FlightAware Approximate
02:54PM 25.1051 -110.2550 138° Southeast  Level FlightAware Approximate
02:55PM 25.0237 -110.1731 136° Southeast  Level FlightAware Approximate
02:56PM 24.9446 -110.0885 136° Southeast  Level FlightAware Approximate
02:57PM 24.8655 -110.0041 136° Southeast  Level FlightAware Approximate
02:58PM 24.7863 -109.9198 136° Southeast  Level FlightAware Approximate
02:59PM 24.7048 -109.8382 138° Southeast  Level FlightAware Approximate
03:00PM 24.6268 -109.7527 135° Southeast  Level FlightAware Approximate
03:01PM 24.5489 -109.6671 135° Southeast  Level FlightAware Approximate
03:02PM 24.4682 -109.5848 138° Southeast  Level FlightAware Approximate
03:03PM 24.3867 -109.5033 138° Southeast  Level FlightAware Approximate
03:04PM 24.3053 -109.4220 138° Southeast  Level FlightAware Approximate
03:05PM 24.1999 -109.4428 193° South  Level FlightAware Approximate
03:06PM 24.0927 -109.4708 193° South  Level FlightAware Approximate
03:07PM 23.9856 -109.4987 193° South  Level FlightAware Approximate
03:08PM 23.8780 -109.5244 190° South  Level FlightAware Approximate
03:09PM 23.7697 -109.5461 190° South  Level FlightAware Approximate
03:10PM 23.6638 -109.5788 197° South  Level FlightAware Approximate
03:11PM 23.5585 -109.6138 197° South  Level FlightAware Approximate
03:12PM 23.4504 -109.6366 190° South  Level FlightAware Approximate
03:13PM 23.3421 -109.6582 190° South  Level FlightAware Approximate
03:14PM 23.2368 -109.6919 200° South  Level FlightAware Approximate